createdAt,value
2018-07-11T10:08:20.448Z,23.00
2018-07-11T10:11:44.898Z,23.60
2018-07-11T10:15:09.307Z,23.90
2018-07-11T10:18:33.763Z,23.80
2018-07-11T10:21:58.215Z,24.10
2018-07-11T10:25:22.702Z,24.20
2018-07-11T10:28:47.121Z,24.40
2018-07-11T10:32:11.605Z,25.10
2018-07-11T10:35:36.062Z,25.60
2018-07-11T10:39:00.581Z,25.40
2018-07-11T10:42:25.035Z,25.30
2018-07-11T10:45:49.501Z,25.30
2018-07-11T10:49:13.992Z,25.30
2018-07-11T10:52:38.532Z,25.00
2018-07-11T10:56:03.006Z,25.20
2018-07-11T10:59:27.659Z,25.00
2018-07-11T11:02:52.120Z,24.60
2018-07-11T11:06:16.556Z,24.60
2018-07-11T11:09:41.013Z,24.70
2018-07-11T11:13:05.492Z,24.70
2018-07-11T11:16:29.962Z,24.80
2018-07-11T11:19:54.381Z,25.10
2018-07-11T11:23:18.937Z,25.70
2018-07-11T11:26:43.360Z,25.90
2018-07-11T11:30:07.806Z,26.30
2018-07-11T11:33:32.237Z,27.40
2018-07-11T11:36:56.694Z,27.50
2018-07-11T11:40:21.171Z,28.10
2018-07-11T11:43:45.647Z,28.70
2018-07-11T11:47:10.045Z,28.80
2018-07-11T11:50:34.534Z,28.40
2018-07-11T11:53:58.995Z,29.50
2018-07-11T11:57:24.016Z,29.90
2018-07-11T12:00:48.444Z,29.90
2018-07-11T12:04:12.953Z,30.30
2018-07-11T12:07:37.429Z,30.70
2018-07-11T12:11:01.903Z,30.80
2018-07-11T12:14:26.347Z,31.40
2018-07-11T12:17:50.809Z,31.30
2018-07-11T12:21:15.341Z,30.20
2018-07-11T12:24:39.781Z,29.80
2018-07-11T12:28:05.785Z,28.50
2018-07-11T12:31:30.279Z,28.30
2018-07-11T12:34:54.734Z,28.10
2018-07-11T12:38:19.177Z,27.00
2018-07-11T12:41:43.618Z,26.30
2018-07-11T12:45:08.181Z,26.00
2018-07-11T12:48:38.010Z,25.60
2018-07-11T12:52:02.471Z,25.60
2018-07-11T12:55:26.939Z,25.60
2018-07-11T12:58:51.614Z,25.50
2018-07-11T13:02:16.112Z,25.80
2018-07-11T13:05:40.567Z,26.40
2018-07-11T13:09:05.701Z,26.00
2018-07-11T13:12:30.193Z,26.00
2018-07-11T13:15:54.722Z,25.60
2018-07-11T13:19:19.206Z,24.90
2018-07-11T13:22:43.716Z,24.10
2018-07-11T13:26:08.244Z,23.90
2018-07-11T13:29:32.701Z,23.90
2018-07-11T13:32:57.201Z,24.30
2018-07-11T13:36:21.638Z,24.30
2018-07-11T13:39:46.176Z,23.80
2018-07-11T13:43:11.957Z,23.20
2018-07-11T13:46:36.455Z,22.90
2018-07-11T13:50:00.902Z,22.80
2018-07-11T13:53:25.410Z,22.50
2018-07-11T13:56:49.870Z,22.20
2018-07-11T14:00:14.302Z,22.10
2018-07-11T14:03:38.763Z,22.00
2018-07-11T14:07:03.293Z,22.00
2018-07-11T14:10:27.723Z,21.80
2018-07-11T14:13:52.235Z,21.20
2018-07-11T14:17:16.730Z,20.50
2018-07-11T14:20:41.245Z,19.90
2018-07-11T14:24:05.714Z,19.50
2018-07-11T14:27:30.341Z,19.50
2018-07-11T14:30:54.800Z,19.70
2018-07-11T14:34:19.288Z,20.00
2018-07-11T14:37:43.846Z,21.00
2018-07-11T14:41:08.320Z,22.20
2018-07-11T14:44:32.834Z,23.00
2018-07-11T14:48:02.573Z,23.60
2018-07-11T14:51:27.270Z,24.00
2018-07-11T14:54:51.684Z,24.00
2018-07-11T14:58:16.276Z,23.70
2018-07-11T15:01:40.724Z,23.30
2018-07-11T15:05:05.241Z,23.10
2018-07-11T15:08:29.747Z,22.80
2018-07-11T15:11:54.212Z,22.70
2018-07-11T15:15:18.632Z,22.40
2018-07-11T15:18:43.110Z,22.20
2018-07-11T15:22:07.628Z,21.90
2018-07-11T15:25:32.083Z,21.70
2018-07-11T15:28:56.721Z,21.40
2018-07-11T15:32:21.434Z,21.10
2018-07-11T15:35:46.561Z,20.50
2018-07-11T15:39:11.048Z,20.10
2018-07-11T15:42:36.062Z,19.70
2018-07-11T15:46:00.537Z,19.30
2018-07-11T15:49:25.004Z,19.10
2018-07-11T15:52:49.899Z,18.90
2018-07-11T15:56:14.407Z,18.70
2018-07-11T15:59:52.367Z,18.60
2018-07-11T16:03:16.871Z,18.50
2018-07-11T16:06:41.395Z,18.50
2018-07-11T16:10:05.895Z,18.40
2018-07-11T16:13:30.433Z,18.20
2018-07-11T16:16:57.022Z,18.20
2018-07-11T16:20:22.394Z,18.40
2018-07-11T16:23:47.207Z,18.40
2018-07-11T16:27:11.637Z,18.60
2018-07-11T16:30:36.752Z,18.50
2018-07-11T16:34:01.498Z,18.40
2018-07-11T16:37:26.036Z,18.40
2018-07-11T16:40:50.908Z,18.30
2018-07-11T16:44:15.361Z,18.30
2018-07-11T16:47:39.844Z,18.20
2018-07-11T16:51:04.418Z,18.10
2018-07-11T16:54:28.922Z,18.00
2018-07-11T16:57:54.168Z,17.90
2018-07-11T17:01:19.013Z,17.90
2018-07-11T17:04:43.571Z,17.90
2018-07-11T17:08:08.089Z,18.00
2018-07-11T17:11:32.750Z,18.10
2018-07-11T17:15:00.985Z,18.20
2018-07-11T17:18:44.657Z,18.40
2018-07-11T17:22:09.424Z,18.50
2018-07-11T17:25:39.976Z,18.80
2018-07-11T17:29:05.034Z,18.90
2018-07-11T17:32:30.851Z,19.00
2018-07-11T17:35:55.763Z,18.80
2018-07-11T17:39:20.633Z,18.70
2018-07-11T17:42:45.837Z,18.50
2018-07-11T17:46:10.277Z,18.40
2018-07-11T17:49:40.324Z,18.40
2018-07-11T17:53:13.553Z,18.30
2018-07-11T17:56:55.327Z,18.40
2018-07-11T18:00:33.315Z,18.50
2018-07-11T18:04:08.615Z,18.60
2018-07-11T18:07:47.538Z,18.60
2018-07-11T18:11:12.929Z,18.60
2018-07-11T18:15:04.152Z,18.50
2018-07-11T18:19:59.814Z,18.40
2018-07-11T18:23:41.231Z,18.40
2018-07-11T18:27:19.331Z,18.40
2018-07-11T18:31:01.280Z,18.50
2018-07-11T18:36:44.011Z,18.50
2018-07-11T18:40:29.493Z,18.50
2018-07-11T18:44:17.599Z,18.50
2018-07-11T18:49:16.410Z,18.50
2018-07-11T18:53:00.597Z,18.50
2018-07-11T18:56:42.708Z,18.60
2018-07-11T19:00:45.435Z,18.60
2018-07-11T19:04:23.975Z,18.50
2018-07-11T19:08:04.836Z,18.60
2018-07-11T19:11:43.993Z,18.60
2018-07-11T19:15:11.486Z,18.60
2018-07-11T19:18:47.258Z,18.60
2018-07-11T19:22:35.982Z,18.60
2018-07-11T19:27:16.469Z,18.50
2018-07-11T19:30:58.095Z,18.50
2018-07-11T19:39:10.267Z,18.50
2018-07-11T19:43:05.107Z,18.50
2018-07-11T19:48:54.286Z,18.40
2018-07-11T19:53:36.463Z,18.40
2018-07-11T19:57:03.738Z,18.40
2018-07-11T20:00:29.273Z,18.30
2018-07-11T20:03:55.260Z,18.30
2018-07-11T20:07:19.976Z,18.30
2018-07-11T20:10:45.273Z,18.30
2018-07-11T20:14:10.428Z,18.20
2018-07-11T20:17:36.247Z,18.20
2018-07-11T20:21:01.455Z,18.10
2018-07-11T20:24:26.983Z,18.00
2018-07-11T20:27:51.461Z,17.90
2018-07-11T20:31:16.340Z,17.90
2018-07-11T20:34:40.798Z,17.80
2018-07-11T20:38:05.492Z,17.80
2018-07-11T20:41:30.009Z,17.80
2018-07-11T20:44:54.904Z,17.80
2018-07-11T20:48:19.496Z,17.80
2018-07-11T20:51:43.962Z,17.70
2018-07-11T20:55:08.381Z,17.70
2018-07-11T20:58:49.845Z,17.60
2018-07-11T21:02:31.260Z,17.60
2018-07-11T21:06:29.984Z,17.50
2018-07-11T21:11:14.419Z,17.40
2018-07-11T21:15:02.799Z,17.40
2018-07-11T21:18:50.590Z,17.30
2018-07-11T21:22:15.040Z,17.30
2018-07-11T21:25:39.483Z,17.20
2018-07-11T21:29:03.914Z,17.30
2018-07-11T21:32:28.410Z,17.30
2018-07-11T21:35:52.806Z,17.40
2018-07-11T21:39:17.338Z,17.40
2018-07-11T21:42:41.809Z,17.40
2018-07-11T21:46:06.400Z,17.40
2018-07-11T21:49:30.838Z,17.40
2018-07-11T21:52:55.251Z,17.40
2018-07-11T21:56:19.696Z,17.40
2018-07-11T21:59:44.134Z,17.40
2018-07-11T22:03:09.523Z,17.40
2018-07-11T22:06:34.023Z,17.40
2018-07-11T22:09:58.453Z,17.40
2018-07-11T22:13:23.008Z,17.40
2018-07-11T22:16:47.429Z,17.40
2018-07-11T22:20:10.215Z,17.30
2018-07-11T22:23:33.013Z,17.30
2018-07-11T22:30:18.840Z,17.20
2018-07-11T22:33:41.619Z,17.30
2018-07-11T22:37:04.400Z,17.30
2018-07-11T22:40:27.225Z,17.30
2018-07-11T22:43:50.027Z,17.40
2018-07-11T22:47:12.791Z,17.40
2018-07-11T22:50:35.562Z,17.30
2018-07-11T22:53:58.356Z,17.30
2018-07-11T22:57:21.420Z,17.30
2018-07-11T23:00:44.192Z,17.30
2018-07-11T23:04:06.953Z,17.30
2018-07-11T23:07:29.737Z,17.30
2018-07-11T23:10:52.532Z,17.30
2018-07-11T23:14:15.321Z,17.30
2018-07-11T23:17:38.095Z,17.30
2018-07-11T23:21:00.873Z,17.30
2018-07-11T23:24:24.042Z,17.30
2018-07-11T23:27:46.826Z,17.30
2018-07-11T23:31:09.625Z,17.30
2018-07-11T23:34:32.387Z,17.30
2018-07-11T23:37:55.165Z,17.30
2018-07-11T23:41:17.936Z,17.30
2018-07-11T23:44:40.696Z,17.30
2018-07-11T23:48:03.490Z,17.30
2018-07-11T23:51:26.262Z,17.30
2018-07-11T23:54:49.049Z,17.30
2018-07-11T23:58:11.841Z,17.30
